Time;durP1;ratioP1;P1;durP2;ratioP2;P2;SDS_P1;SDS_P2;PMS_P1;PMS_P2;Temp;Humidity;BMP_temperature;BMP_pressure;BME280_temperature;BME280_humidity;BME280_pressure;Samples;Min_cycle;Max_cycle;Signal;HPM_P1;HPM_P2
2023/06/12 00:01:22;;;;;;;5.97;5.38;;;;;;;25.72;39.67;101483.47;5018296;28;20108;-56
2023/06/12 00:03:49;;;;;;;7.72;5.28;;;;;;;25.71;39.63;101481.75;5020361;28;20117;-56
2023/06/12 00:06:16;;;;;;;6.95;4.88;;;;;;;25.69;39.20;101482.97;5023676;28;20472;-56
2023/06/12 00:08:42;;;;;;;7.03;5.13;;;;;;;25.70;39.66;101477.34;5019521;28;20406;-55
2023/06/12 00:11:12;;;;;;;5.70;5.10;;;;;;;25.69;39.62;101472.91;5017437;28;20091;-56
2023/06/12 00:13:41;;;;;;;7.32;4.72;;;;;;;25.69;39.36;101472.91;5020855;28;20026;-56
2023/06/12 00:16:07;;;;;;;6.28;4.97;;;;;;;25.69;39.37;101474.78;5022477;28;20033;-55
2023/06/12 00:18:33;;;;;;;5.07;4.63;;;;;;;25.68;39.50;101475.81;5021436;28;20471;-56
2023/06/12 00:20:59;;;;;;;7.40;5.20;;;;;;;25.68;39.53;101482.13;5020510;28;20041;-56
2023/06/12 00:23:24;;;;;;;7.03;5.35;;;;;;;25.67;39.38;101474.97;5025014;28;20200;-56
2023/06/12 00:25:49;;;;;;;6.75;4.93;;;;;;;25.66;39.32;101484.16;5020950;28;20045;-56
2023/06/12 00:28:15;;;;;;;7.70;5.03;;;;;;;25.67;39.27;101479.59;5020491;28;20037;-56
2023/06/12 00:30:40;;;;;;;6.47;4.85;;;;;;;25.66;39.20;101478.72;5020402;28;20056;-56
2023/06/12 00:33:05;;;;;;;5.55;4.95;;;;;;;25.66;39.34;101481.44;5019886;28;20216;-55
2023/06/12 00:35:31;;;;;;;6.55;5.13;;;;;;;25.64;39.05;101480.78;5021070;28;20037;-56
2023/06/12 00:37:56;;;;;;;6.82;5.07;;;;;;;25.63;39.21;101484.56;5020376;28;20411;-56
2023/06/12 00:40:22;;;;;;;8.40;4.65;;;;;;;25.63;39.35;101479.09;5020672;28;20037;-56
2023/06/12 00:42:50;;;;;;;6.20;5.05;;;;;;;25.61;39.08;101481.16;5015388;28;20029;-56
2023/06/12 00:45:18;;;;;;;6.72;5.18;;;;;;;25.62;39.10;101482.00;5022508;28;20030;-56
2023/06/12 00:47:52;;;;;;;6.80;4.95;;;;;;;25.60;39.60;101474.00;5020387;28;20080;-56
2023/06/12 00:50:19;;;;;;;8.95;5.32;;;;;;;25.59;39.18;101469.59;5019754;28;20038;-56
2023/06/12 00:52:48;;;;;;;8.63;4.82;;;;;;;25.60;39.06;101479.44;5019849;28;20034;-56
2023/06/12 00:55:16;;;;;;;6.72;5.03;;;;;;;25.60;39.47;101475.88;5020680;28;20054;-56
2023/06/12 00:57:44;;;;;;;6.93;5.13;;;;;;;25.59;39.19;101477.78;5019753;28;20047;-56
2023/06/12 01:00:11;;;;;;;7.03;5.03;;;;;;;25.58;39.11;101477.94;5015435;28;20120;-56
2023/06/12 01:02:42;;;;;;;6.72;5.50;;;;;;;25.57;39.02;101485.28;5019155;28;20033;-55
2023/06/12 01:05:10;;;;;;;6.55;5.07;;;;;;;25.58;39.42;101475.22;5020046;28;20038;-56
2023/06/12 01:07:43;;;;;;;5.65;5.03;;;;;;;25.57;39.18;101479.84;5021153;28;20087;-56
2023/06/12 01:10:20;;;;;;;5.97;5.38;;;;;;;25.56;39.48;101478.13;5015315;28;20038;-56
2023/06/12 01:12:46;;;;;;;6.65;5.18;;;;;;;25.53;39.14;101470.28;5019904;28;20036;-56
2023/06/12 01:15:13;;;;;;;5.57;5.05;;;;;;;25.53;39.03;101475.75;5019760;28;20447;-56
2023/06/12 01:17:40;;;;;;;6.38;4.90;;;;;;;25.51;39.23;101470.50;5022417;28;20416;-56
2023/06/12 01:20:09;;;;;;;5.72;5.03;;;;;;;25.51;39.11;101480.53;5024579;28;20088;-56
2023/06/12 01:22:45;;;;;;;9.48;5.03;;;;;;;25.51;38.86;101477.81;5018328;28;20030;-56
2023/06/12 01:25:45;;;;;;;6.03;4.82;;;;;;;25.53;39.48;101473.00;5020014;28;20503;-56
2023/06/12 01:28:25;;;;;;;5.38;4.88;;;;;;;25.51;39.22;101478.69;5018827;28;20028;-56
2023/06/12 01:31:18;;;;;;;6.25;5.32;;;;;;;25.52;39.62;101479.50;5020838;28;20364;-56
2023/06/12 01:33:54;;;;;;;6.35;5.15;;;;;;;25.48;39.29;101481.75;5019737;28;20041;-56
2023/06/12 01:36:24;;;;;;;5.28;4.78;;;;;;;25.47;39.00;101479.19;5019127;28;20061;-56
2023/06/12 01:38:57;;;;;;;7.47;6.07;;;;;;;25.46;39.14;101481.09;5013075;28;20056;-56
2023/06/12 01:41:27;;;;;;;6.03;4.95;;;;;;;25.45;39.17;101478.53;5025262;28;20030;-56
2023/06/12 01:43:52;;;;;;;6.80;5.05;;;;;;;25.44;39.13;101476.84;5021429;28;20030;-56
2023/06/12 01:46:18;;;;;;;6.22;5.30;;;;;;;25.45;38.81;101478.53;5016410;28;20442;-56
2023/06/12 01:48:43;;;;;;;7.28;5.50;;;;;;;25.43;39.26;101481.44;5020324;28;20029;-56
2023/06/12 01:51:08;;;;;;;5.78;5.15;;;;;;;25.43;39.26;101488.78;5020187;28;20049;-56
2023/06/12 01:53:35;;;;;;;7.07;4.95;;;;;;;25.42;39.37;101481.59;5019921;28;20487;-56
2023/06/12 01:56:00;;;;;;;7.40;5.05;;;;;;;25.40;39.14;101481.81;5019031;28;20061;-56
2023/06/12 01:58:27;;;;;;;9.73;4.85;;;;;;;25.40;39.13;101483.66;5019760;28;20051;-56
2023/06/12 02:00:53;;;;;;;5.70;5.10;;;;;;;25.38;38.99;101485.72;5020288;28;20038;-56
2023/06/12 02:03:22;;;;;;;8.02;5.15;;;;;;;25.36;39.27;101478.59;5022609;28;20112;-56
2023/06/12 02:05:48;;;;;;;7.63;5.38;;;;;;;25.35;39.10;101479.63;5022267;28;20033;-56
2023/06/12 02:08:13;;;;;;;8.05;5.50;;;;;;;25.35;39.00;101482.34;5021882;28;20464;-56
2023/06/12 02:10:39;;;;;;;5.30;4.80;;;;;;;25.35;38.91;101482.34;5023194;28;20041;-56
2023/06/12 02:13:04;;;;;;;7.10;5.50;;;;;;;25.32;39.06;101488.16;5022207;28;20187;-56
2023/06/12 02:15:30;;;;;;;6.78;5.63;;;;;;;25.32;39.07;101477.28;5025548;28;20551;-56
2023/06/12 02:17:56;;;;;;;5.93;5.38;;;;;;;25.31;38.94;101481.00;5024177;28;20468;-56
2023/06/12 02:20:21;;;;;;;6.85;5.03;;;;;;;25.32;39.46;101484.56;5022924;28;20068;-56
2023/06/12 02:22:46;;;;;;;6.32;4.97;;;;;;;25.30;39.23;101478.44;5022224;28;20388;-56
2023/06/12 02:25:12;;;;;;;9.35;5.50;;;;;;;25.30;39.49;101484.78;5022119;28;20411;-56
2023/06/12 02:27:37;;;;;;;8.23;5.20;;;;;;;25.29;39.33;101472.16;5023434;28;20034;-55
2023/06/12 02:30:03;;;;;;;7.28;5.05;;;;;;;25.28;39.44;101483.25;5022658;28;20523;-56
2023/06/12 02:32:28;;;;;;;5.70;5.18;;;;;;;25.25;39.37;101473.56;5022400;28;20042;-56
2023/06/12 02:34:54;;;;;;;5.60;5.03;;;;;;;25.25;39.63;101470.84;5021767;28;20388;-56
2023/06/12 02:37:20;;;;;;;6.90;5.20;;;;;;;25.24;39.63;101474.56;5027108;28;20033;-56
2023/06/12 02:39:45;;;;;;;6.93;5.57;;;;;;;25.24;39.57;101469.13;5022194;28;20036;-56
2023/06/12 02:42:11;;;;;;;6.32;5.28;;;;;;;25.23;39.61;101472.88;5022669;28;20468;-56
2023/06/12 02:44:36;;;;;;;5.80;5.13;;;;;;;25.23;39.52;101475.63;5023442;28;20029;-56
2023/06/12 02:47:02;;;;;;;7.78;5.63;;;;;;;25.21;39.53;101483.09;5021286;28;20136;-56
2023/06/12 02:49:29;;;;;;;7.50;5.43;;;;;;;25.20;39.42;101477.81;5022004;28;20116;-56
2023/06/12 02:51:55;;;;;;;6.55;5.55;;;;;;;25.17;39.72;101484.47;5021392;28;20060;-55
2023/06/12 02:54:22;;;;;;;7.65;5.30;;;;;;;25.15;39.39;101475.59;5022555;28;20041;-55
2023/06/12 02:56:48;;;;;;;5.80;5.30;;;;;;;25.15;39.37;101472.88;5019474;28;20472;-56
2023/06/12 02:59:23;;;;;;;9.00;5.65;;;;;;;25.15;39.62;101472.88;5017545;28;20025;-56
2023/06/12 03:01:49;;;;;;;7.10;5.75;;;;;;;25.15;39.36;101475.59;5021083;28;20480;-55
2023/06/12 03:04:19;;;;;;;10.45;6.07;;;;;;;25.13;39.35;101473.09;5021210;28;20108;-56
2023/06/12 03:06:44;;;;;;;7.40;5.47;;;;;;;25.14;39.26;101479.38;5029954;28;20378;-55
2023/06/12 03:09:11;;;;;;;6.55;5.60;;;;;;;25.12;39.23;101470.53;5021679;28;20025;-56
2023/06/12 03:11:36;;;;;;;7.32;5.75;;;;;;;25.10;39.48;101473.44;5022308;28;20053;-56
2023/06/12 03:14:03;;;;;;;8.18;5.85;;;;;;;25.10;39.08;101467.13;5021550;28;20456;-56
2023/06/12 03:16:30;;;;;;;6.22;5.53;;;;;;;25.11;39.34;101477.88;5024459;28;20084;-56
2023/06/12 03:18:56;;;;;;;8.00;5.93;;;;;;;25.08;39.03;101469.19;5023811;28;20395;-56
2023/06/12 03:21:21;;;;;;;7.22;6.15;;;;;;;25.06;39.29;101472.09;5018764;28;20095;-56
2023/06/12 03:23:47;;;;;;;6.38;5.78;;;;;;;25.07;38.95;101470.22;5021753;28;20034;-56
2023/06/12 03:26:12;;;;;;;8.27;6.18;;;;;;;25.07;39.40;101473.78;5021546;28;20030;-56
2023/06/12 03:28:37;;;;;;;7.07;5.75;;;;;;;25.07;39.64;101472.94;5022274;28;20065;-56
2023/06/12 03:31:03;;;;;;;10.38;5.90;;;;;;;25.07;39.48;101472.94;5020137;28;20041;-56
2023/06/12 03:33:28;;;;;;;8.93;5.75;;;;;;;25.06;39.27;101482.16;5023419;28;20028;-56
2023/06/12 03:35:53;;;;;;;8.10;5.78;;;;;;;25.04;39.19;101473.31;5021556;28;20395;-56
2023/06/12 03:38:19;;;;;;;8.10;5.60;;;;;;;25.03;39.50;101480.63;5022589;28;20395;-56
2023/06/12 03:40:44;;;;;;;5.80;5.20;;;;;;;25.03;39.43;101493.41;5022135;28;20419;-55
2023/06/12 03:43:10;;;;;;;7.85;5.32;;;;;;;25.01;39.43;101490.00;5021753;28;20078;-56
2023/06/12 03:45:35;;;;;;;9.93;5.47;;;;;;;25.01;40.09;101484.56;5021048;28;20029;-56
2023/06/12 03:48:00;;;;;;;6.80;6.07;;;;;;;25.01;39.72;101490.00;5022017;28;20033;-56
2023/06/12 03:50:26;;;;;;;5.78;5.18;;;;;;;25.00;39.97;101491.00;5021598;28;20533;-55
2023/06/12 03:52:51;;;;;;;7.22;5.85;;;;;;;24.99;40.00;101492.91;5021696;28;20037;-56
2023/06/12 03:55:17;;;;;;;13.95;5.93;;;;;;;24.96;39.96;101491.38;5020924;28;20140;-56
2023/06/12 03:57:42;;;;;;;11.38;6.13;;;;;;;24.95;39.87;101497.84;5022140;28;20171;-56
2023/06/12 04:00:09;;;;;;;9.55;6.65;;;;;;;24.95;39.90;101494.28;5022164;28;20061;-55
2023/06/12 04:02:36;;;;;;;7.93;5.55;;;;;;;24.93;40.04;101499.91;5020538;28;20452;-56
2023/06/12 04:05:03;;;;;;;8.43;5.75;;;;;;;24.92;39.86;101503.66;5020223;28;20034;-56
2023/06/12 04:07:28;;;;;;;9.15;6.40;;;;;;;24.91;40.38;101506.56;5028057;28;20033;-56
2023/06/12 04:09:54;;;;;;;9.88;5.95;;;;;;;24.89;40.11;101508.63;5018888;28;20046;-56
2023/06/12 04:12:20;;;;;;;9.43;6.13;;;;;;;24.88;40.14;101507.75;5020708;28;20117;-56
2023/06/12 04:14:45;;;;;;;9.05;5.43;;;;;;;24.89;40.28;101508.63;5020454;28;20504;-56
2023/06/12 04:17:11;;;;;;;7.35;6.20;;;;;;;24.86;40.37;101508.97;5020048;28;20384;-56
2023/06/12 04:19:36;;;;;;;7.97;5.60;;;;;;;24.86;40.42;101508.97;5021374;28;20084;-56
2023/06/12 04:22:02;;;;;;;6.18;5.53;;;;;;;24.86;40.08;101506.22;5021507;28;20443;-56
2023/06/12 04:24:30;;;;;;;6.82;5.65;;;;;;;24.85;40.55;101512.72;5021319;28;20109;-56
2023/06/12 04:27:00;;;;;;;7.97;6.25;;;;;;;24.84;40.25;101506.41;5014746;28;20033;-56
2023/06/12 04:29:27;;;;;;;7.47;5.85;;;;;;;24.86;40.30;101517.13;5022738;28;20033;-56
2023/06/12 04:31:54;;;;;;;6.93;6.15;;;;;;;24.84;40.02;101511.84;5020846;28;20044;-55
2023/06/12 04:34:20;;;;;;;7.32;5.72;;;;;;;24.83;40.05;101512.03;5019581;28;20048;-56
2023/06/12 04:36:46;;;;;;;7.25;5.85;;;;;;;24.84;40.32;101508.28;5018512;28;20030;-56
2023/06/12 04:39:13;;;;;;;11.13;5.63;;;;;;;24.83;40.28;101514.75;5019356;28;20056;-56
2023/06/12 04:41:40;;;;;;;12.98;6.70;;;;;;;24.82;39.96;101513.91;5018331;28;20034;-56
2023/06/12 04:44:06;;;;;;;6.90;6.00;;;;;;;24.82;40.25;101513.06;5020245;28;20053;-56
2023/06/12 04:46:33;;;;;;;8.00;5.93;;;;;;;24.81;40.06;101505.91;5019934;28;20087;-56
2023/06/12 04:48:59;;;;;;;10.93;5.82;;;;;;;24.81;40.62;101509.50;5016541;28;20079;-56
2023/06/12 04:51:24;;;;;;;10.40;6.57;;;;;;;24.82;40.33;101513.06;5018349;28;20061;-56
2023/06/12 04:53:53;;;;;;;6.50;5.38;;;;;;;24.80;40.35;101512.38;5011282;28;20065;-56
2023/06/12 04:56:21;;;;;;;7.53;6.05;;;;;;;24.79;40.91;101508.81;5015951;28;20062;-56
2023/06/12 04:58:47;;;;;;;9.93;6.05;;;;;;;24.77;40.52;101505.44;5018890;28;20021;-56
2023/06/12 05:01:14;;;;;;;7.30;5.65;;;;;;;24.78;40.87;101523.47;5017039;28;20029;-56
2023/06/12 05:03:40;;;;;;;7.00;6.00;;;;;;;24.80;41.03;101526.00;5022720;28;20030;-56
2023/06/12 05:06:07;;;;;;;7.97;6.32;;;;;;;24.80;41.15;101520.56;5020460;28;20029;-56
2023/06/12 05:08:32;;;;;;;6.55;5.95;;;;;;;24.80;40.64;101515.97;5019734;28;20064;-56
2023/06/12 05:10:58;;;;;;;7.07;5.90;;;;;;;24.80;40.82;101513.22;5018409;28;20061;-56
2023/06/12 05:13:23;;;;;;;12.15;6.00;;;;;;;24.80;40.99;101515.13;5020937;28;20034;-56
2023/06/12 05:15:48;;;;;;;9.90;6.15;;;;;;;24.80;41.08;101515.97;5022152;28;20080;-56
2023/06/12 05:18:14;;;;;;;8.02;6.28;;;;;;;24.80;40.93;101518.69;5021670;28;20060;-56
2023/06/12 05:20:39;;;;;;;6.68;5.93;;;;;;;24.80;40.72;101521.41;5021112;28;20068;-56
2023/06/12 05:23:05;;;;;;;10.18;6.07;;;;;;;24.79;41.15;101522.44;5019646;28;20033;-55
2023/06/12 05:25:30;;;;;;;7.18;6.07;;;;;;;24.78;41.45;101523.47;5017691;28;20057;-56
2023/06/12 05:27:56;;;;;;;10.38;6.15;;;;;;;24.79;41.30;101525.16;5018463;28;20429;-56
2023/06/12 05:30:21;;;;;;;8.60;6.28;;;;;;;24.78;41.17;101513.41;5018219;28;20387;-56
2023/06/12 05:32:47;;;;;;;7.40;6.00;;;;;;;24.80;41.55;101528.72;5019543;28;20037;-56
2023/06/12 05:35:12;;;;;;;6.72;5.65;;;;;;;24.81;41.39;101517.66;5018997;28;20022;-55
2023/06/12 05:37:38;;;;;;;7.38;5.95;;;;;;;24.82;41.58;101516.63;5022484;28;20416;-56
2023/06/12 05:40:05;;;;;;;10.57;5.40;;;;;;;24.81;41.25;101520.41;5022614;28;20105;-56
2023/06/12 05:42:31;;;;;;;9.45;6.13;;;;;;;24.82;41.08;101519.34;5022547;28;20053;-56
2023/06/12 05:44:57;;;;;;;6.90;6.15;;;;;;;24.82;41.07;101511.19;5023390;28;20405;-55
2023/06/12 05:47:22;;;;;;;8.25;6.03;;;;;;;24.81;41.70;101512.22;5022167;28;20414;-56
2023/06/12 05:49:48;;;;;;;8.40;6.03;;;;;;;24.82;41.13;101513.91;5023690;28;20034;-56
2023/06/12 05:52:13;;;;;;;6.60;5.80;;;;;;;24.82;41.27;101507.63;5023332;28;20030;-56
2023/06/12 05:54:39;;;;;;;6.40;5.70;;;;;;;24.83;41.34;101506.56;5023228;28;20050;-56
2023/06/12 05:57:04;;;;;;;9.30;5.95;;;;;;;24.83;41.36;101510.16;5024603;28;20112;-56
2023/06/12 05:59:30;;;;;;;9.00;5.75;;;;;;;24.83;41.25;101509.31;5023367;28;20103;-56
2023/06/12 06:01:56;;;;;;;6.68;5.82;;;;;;;24.84;41.42;101511.00;5023674;28;20026;-56
2023/06/12 06:04:22;;;;;;;7.50;5.95;;;;;;;24.84;41.20;101511.84;5023492;28;20464;-55
2023/06/12 06:06:47;;;;;;;8.65;5.07;;;;;;;24.84;41.37;101511.00;5024538;28;20037;-55
2023/06/12 06:09:15;;;;;;;8.55;5.78;;;;;;;24.84;41.41;101511.84;5023432;28;20030;-55
2023/06/12 06:11:40;;;;;;;7.63;5.40;;;;;;;24.83;41.14;101515.63;5023266;28;20120;-56
2023/06/12 06:14:05;;;;;;;6.22;5.47;;;;;;;24.84;41.62;101509.13;5022497;28;20407;-56
2023/06/12 06:16:31;;;;;;;9.65;6.00;;;;;;;24.84;41.36;101511.84;5024988;28;20061;-56
2023/06/12 06:18:56;;;;;;;7.95;5.50;;;;;;;24.84;41.59;101514.56;5022773;28;20028;-56
2023/06/12 06:21:22;;;;;;;6.10;5.32;;;;;;;24.85;41.15;101510.00;5021394;28;20581;-56
2023/06/12 06:23:47;;;;;;;6.70;5.97;;;;;;;24.83;41.78;101518.34;5027244;28;20037;-56
2023/06/12 06:26:12;;;;;;;10.05;5.40;;;;;;;24.84;41.13;101520.03;5023455;28;20033;-56
2023/06/12 06:28:38;;;;;;;8.95;5.65;;;;;;;24.83;41.10;101521.06;5022939;28;20030;-55
2023/06/12 06:31:09;;;;;;;6.72;5.20;;;;;;;24.82;41.38;101519.34;5022812;28;20112;-56
2023/06/12 06:33:34;;;;;;;7.47;5.88;;;;;;;24.86;41.21;101522.56;5023864;28;20044;-56
2023/06/12 06:35:59;;;;;;;7.35;5.28;;;;;;;24.84;41.45;101517.31;5022763;28;20045;-56
2023/06/12 06:38:25;;;;;;;9.98;5.78;;;;;;;24.85;41.12;101519.00;5022674;28;20115;-56
2023/06/12 06:40:53;;;;;;;9.13;6.03;;;;;;;24.85;41.31;101521.75;5022819;28;20346;-56
2023/06/12 06:43:19;;;;;;;8.50;5.60;;;;;;;24.86;41.21;101515.25;5025707;28;20038;-56
2023/06/12 06:45:44;;;;;;;8.10;5.60;;;;;;;24.86;41.68;101514.41;5019293;28;20669;-56
2023/06/12 06:48:12;;;;;;;6.97;5.40;;;;;;;24.86;41.46;101519.84;5021745;28;20575;-56
2023/06/12 06:50:37;;;;;;;6.40;5.38;;;;;;;24.87;41.73;101519.69;5023527;28;20029;-56
2023/06/12 06:53:03;;;;;;;7.55;5.57;;;;;;;24.85;41.11;101519.00;5023012;28;20526;-56
2023/06/12 06:55:28;;;;;;;8.07;5.55;;;;;;;24.86;41.59;101523.41;5022909;28;20073;-56
2023/06/12 06:57:54;;;;;;;9.38;5.78;;;;;;;24.87;41.48;101519.69;5029383;28;20036;-55
2023/06/12 07:00:21;;;;;;;10.25;6.15;;;;;;;24.88;41.31;101523.25;5017878;28;20080;-56
2023/06/12 07:02:50;;;;;;;7.35;5.63;;;;;;;24.88;41.62;101518.63;5022762;28;20052;-56
2023/06/12 07:05:15;;;;;;;6.32;5.22;;;;;;;24.88;41.46;101517.81;5022525;28;20058;-56
2023/06/12 07:07:43;;;;;;;7.47;5.82;;;;;;;24.89;41.22;101519.50;5021908;28;20026;-55
2023/06/12 07:10:09;;;;;;;8.13;5.20;;;;;;;24.91;41.17;101517.47;5022648;28;20032;-56
2023/06/12 07:12:34;;;;;;;6.57;5.13;;;;;;;24.91;41.62;101514.75;5020964;28;20128;-56
2023/06/12 07:15:00;;;;;;;7.18;5.50;;;;;;;24.91;41.22;101510.13;5020020;28;20121;-56
2023/06/12 07:17:25;;;;;;;7.00;5.68;;;;;;;24.93;41.52;101516.25;5021348;28;20045;-56
2023/06/12 07:19:51;;;;;;;10.38;5.18;;;;;;;24.92;41.49;101509.13;5025212;28;20041;-56
2023/06/12 07:22:16;;;;;;;7.47;5.25;;;;;;;24.93;41.80;101510.81;5022095;28;20041;-56
2023/06/12 07:24:42;;;;;;;6.68;5.50;;;;;;;24.95;41.40;101511.47;5021661;28;20038;-56
2023/06/12 07:27:07;;;;;;;8.02;5.00;;;;;;;24.95;41.65;101511.47;5019980;28;20057;-56
2023/06/12 07:29:33;;;;;;;9.55;5.47;;;;;;;24.96;41.63;101506.91;5022171;28;20025;-56
2023/06/12 07:31:58;;;;;;;6.68;5.43;;;;;;;24.96;41.55;101510.47;5022087;28;20383;-56
2023/06/12 07:34:23;;;;;;;9.20;5.55;;;;;;;24.97;41.42;101505.84;5022049;28;20500;-56
2023/06/12 07:36:49;;;;;;;7.43;5.60;;;;;;;24.98;41.50;101504.84;5022181;28;20061;-56
2023/06/12 07:39:14;;;;;;;7.20;4.70;;;;;;;24.98;41.50;101502.97;5022269;28;20091;-56
2023/06/12 07:41:42;;;;;;;6.43;5.40;;;;;;;25.00;41.73;101510.97;5021931;28;20046;-56
2023/06/12 07:44:08;;;;;;;8.98;5.55;;;;;;;25.01;41.34;101512.63;5020219;28;20493;-56
2023/06/12 07:46:34;;;;;;;6.75;5.38;;;;;;;25.03;41.46;101504.28;5022461;28;20033;-56
2023/06/12 07:48:59;;;;;;;9.70;5.57;;;;;;;25.02;41.48;101506.19;5022038;28;20112;-56
2023/06/12 07:51:24;;;;;;;8.43;5.82;;;;;;;25.04;41.79;101501.41;5021698;28;20080;-55
2023/06/12 07:53:50;;;;;;;8.23;5.47;;;;;;;25.05;41.48;101504.97;5025401;28;20384;-56
2023/06/12 07:56:17;;;;;;;7.93;5.40;;;;;;;25.05;41.50;101504.97;5021742;28;20061;-56
2023/06/12 07:58:45;;;;;;;6.00;5.30;;;;;;;25.05;41.61;101505.81;5020345;28;20081;-56
2023/06/12 08:01:10;;;;;;;7.82;5.95;;;;;;;25.06;41.49;101495.78;5019040;28;20045;-56
2023/06/12 08:03:38;;;;;;;8.48;5.43;;;;;;;25.07;41.33;101498.31;5020747;28;20040;-56
2023/06/12 08:06:08;;;;;;;7.75;5.78;;;;;;;25.07;41.60;101501.03;5024003;28;20033;-56
2023/06/12 08:08:47;;;;;;;8.43;5.60;;;;;;;25.09;41.74;101500.84;5021510;28;20136;-56
2023/06/12 08:11:13;;;;;;;7.95;5.38;;;;;;;25.08;42.01;101502.72;5022033;28;20026;-56
2023/06/12 08:13:40;;;;;;;5.90;5.30;;;;;;;25.10;41.43;101497.13;5018623;28;20041;-56
2023/06/12 08:16:05;;;;;;;5.28;4.78;;;;;;;25.09;41.79;101499.00;5025671;28;20087;-56
2023/06/12 08:18:31;;;;;;;10.55;5.35;;;;;;;25.11;41.80;101496.06;5020717;28;20041;-56
2023/06/12 08:20:57;;;;;;;6.10;5.50;;;;;;;25.12;41.87;101497.78;5023330;28;20030;-59
2023/06/12 08:23:23;;;;;;;8.68;5.22;;;;;;;25.12;42.12;101504.06;5021912;28;20064;-55
2023/06/12 08:25:48;;;;;;;5.45;4.93;;;;;;;25.13;42.00;101503.06;5021206;28;20064;-56
2023/06/12 08:28:13;;;;;;;5.10;4.40;;;;;;;25.15;42.01;101502.84;5020734;28;20041;-56
2023/06/12 08:30:39;;;;;;;6.15;5.55;;;;;;;25.15;41.86;101497.41;5020474;28;20045;-56
2023/06/12 08:33:05;;;;;;;7.43;5.10;;;;;;;25.15;42.15;101497.41;5021290;28;20392;-56
2023/06/12 08:35:30;;;;;;;5.65;5.07;;;;;;;25.15;41.99;101495.56;5021828;28;20393;-56
2023/06/12 08:37:56;;;;;;;6.35;5.00;;;;;;;25.17;41.88;101496.22;5019990;28;20036;-56
2023/06/12 08:40:21;;;;;;;6.53;5.65;;;;;;;25.17;42.23;101495.38;5020577;28;20038;-56
2023/06/12 08:42:51;;;;;;;6.65;4.90;;;;;;;25.18;41.99;101497.91;5021211;28;20037;-56
2023/06/12 08:45:18;;;;;;;7.25;5.50;;;;;;;25.18;42.08;101495.19;5020850;28;20029;-56
2023/06/12 08:47:50;;;;;;;6.25;4.60;;;;;;;25.18;42.13;101497.91;5020194;28;20164;-56
2023/06/12 08:50:17;;;;;;;5.72;5.10;;;;;;;25.18;42.27;101492.44;5021219;28;20034;-56
2023/06/12 08:52:42;;;;;;;6.25;5.65;;;;;;;25.21;42.25;101490.41;5020941;28;20533;-56
2023/06/12 08:55:09;;;;;;;6.72;5.25;;;;;;;25.21;41.96;101491.25;5020262;28;20029;-56
2023/06/12 08:57:38;;;;;;;5.97;4.90;;;;;;;25.21;42.08;101496.72;4999622;28;20050;-55
2023/06/12 09:00:10;;;;;;;8.18;5.35;;;;;;;25.22;42.39;101486.66;4998419;28;20592;-56
2023/06/12 09:02:35;;;;;;;6.70;5.30;;;;;;;25.24;42.48;101490.91;5001533;28;20389;-56
2023/06/12 09:05:05;;;;;;;5.53;5.03;;;;;;;25.24;42.11;101485.47;5000932;28;20034;-55
2023/06/12 09:07:35;;;;;;;8.10;5.18;;;;;;;25.26;42.10;101488.03;5001584;28;20081;-56
2023/06/12 09:10:01;;;;;;;5.95;5.30;;;;;;;25.25;42.38;101470.84;4999002;28;20476;-55
2023/06/12 09:12:29;;;;;;;5.70;4.82;;;;;;;25.25;42.43;101468.09;5001249;28;20111;-56
2023/06/12 09:14:55;;;;;;;5.97;5.38;;;;;;;25.26;42.22;101467.06;5004693;28;20034;-56
2023/06/12 09:17:26;;;;;;;5.40;4.90;;;;;;;25.27;42.39;101471.50;5003289;28;20780;-56
2023/06/12 09:19:51;;;;;;;6.65;5.20;;;;;;;25.28;42.65;101465.00;5002620;28;20041;-55
2023/06/12 09:22:17;;;;;;;6.00;4.95;;;;;;;25.30;42.26;101464.81;5004851;28;20034;-56
2023/06/12 09:24:42;;;;;;;8.60;5.13;;;;;;;25.29;42.53;101466.72;5004353;28;20472;-55
2023/06/12 09:27:08;;;;;;;6.00;5.40;;;;;;;25.29;42.21;101466.72;5004541;28;20088;-55
2023/06/12 09:29:36;;;;;;;6.20;4.72;;;;;;;25.31;42.20;101472.00;5003888;28;20062;-56
2023/06/12 09:32:03;;;;;;;7.95;4.90;;;;;;;25.30;42.27;101462.97;5004218;28;20088;-55
2023/06/12 09:34:31;;;;;;;6.22;5.15;;;;;;;25.31;42.73;101456.47;5001598;28;20061;-56
2023/06/12 09:36:58;;;;;;;6.25;4.82;;;;;;;25.32;42.68;101460.91;5005251;28;20056;-56
2023/06/12 09:39:30;;;;;;;5.97;4.78;;;;;;;25.33;42.22;101468.03;5006032;28;20041;-56
2023/06/12 09:41:57;;;;;;;6.05;4.82;;;;;;;25.33;42.19;101459.03;5002030;28;20028;-56
2023/06/12 09:44:24;;;;;;;6.18;5.00;;;;;;;25.33;42.39;101462.59;5003592;28;20034;-56
2023/06/12 09:46:52;;;;;;;5.80;5.20;;;;;;;25.33;42.42;101462.59;5005720;28;20041;-56
2023/06/12 09:49:24;;;;;;;5.00;4.60;;;;;;;25.33;42.84;101462.59;5003588;28;20054;-56
2023/06/12 09:51:51;;;;;;;6.03;5.28;;;;;;;25.34;42.31;101468.88;5003692;28;20040;-56
2023/06/12 09:54:18;;;;;;;6.05;4.85;;;;;;;25.34;42.59;101463.44;5004617;28;20025;-56
2023/06/12 09:56:48;;;;;;;5.80;5.30;;;;;;;25.36;42.84;101466.84;5016862;28;20076;-56
2023/06/12 09:59:18;;;;;;;7.40;5.22;;;;;;;25.35;42.60;101468.72;5019432;28;20030;-56
2023/06/12 10:01:49;;;;;;;5.70;5.20;;;;;;;25.35;42.35;101465.97;5021839;28;20068;-55
2023/06/12 10:04:40;;;;;;;6.72;5.50;;;;;;;25.40;42.37;101461.84;5019338;28;20538;-56
2023/06/12 10:07:15;;;;;;;7.50;4.93;;;;;;;25.38;42.60;101464.78;5034329;28;20052;-56
2023/06/12 10:09:47;;;;;;;6.03;5.25;;;;;;;25.38;42.17;101464.78;5023164;28;20033;-56
2023/06/12 10:12:12;;;;;;;8.10;5.30;;;;;;;25.38;42.32;101470.25;5022894;28;20034;-56
2023/06/12 10:14:38;;;;;;;5.60;5.03;;;;;;;25.38;42.28;101461.19;5024053;28;20476;-56
2023/06/12 10:17:04;;;;;;;6.05;5.38;;;;;;;25.40;42.24;101453.69;5026542;28;20404;-55
2023/06/12 10:19:31;;;;;;;5.22;4.72;;;;;;;25.41;42.41;101455.41;5023036;28;20412;-56
2023/06/12 10:21:58;;;;;;;5.70;5.15;;;;;;;25.41;42.28;101452.66;5022990;28;20029;-56
2023/06/12 10:24:24;;;;;;;7.80;5.32;;;;;;;25.42;42.05;101448.91;5023526;28;20500;-56
2023/06/12 10:26:52;;;;;;;8.55;5.65;;;;;;;25.43;41.82;101454.16;5019643;28;20396;-56
2023/06/12 10:29:29;;;;;;;9.20;5.45;;;;;;;25.45;42.29;101445.81;5022295;28;20025;-56
2023/06/12 10:32:14;;;;;;;5.07;4.68;;;;;;;25.43;42.47;101451.44;5024366;28;20040;-56
2023/06/12 10:34:45;;;;;;;5.75;5.25;;;;;;;25.44;42.23;101452.31;5022979;28;20052;-56
2023/06/12 10:37:20;;;;;;;7.05;4.93;;;;;;;25.46;42.22;101447.53;5022573;28;20040;-56
2023/06/12 10:40:06;;;;;;;6.97;4.93;;;;;;;25.45;42.32;101449.38;5022187;28;20060;-56
2023/06/12 10:42:42;;;;;;;7.68;5.30;;;;;;;25.47;42.18;101450.03;5029216;28;20120;-56
2023/06/12 10:45:26;;;;;;;5.35;4.85;;;;;;;25.49;42.50;101448.03;5022841;28;20395;-56
2023/06/12 10:48:14;;;;;;;6.00;5.38;;;;;;;25.50;42.15;101437.94;5022357;28;20033;-56
2023/06/12 10:50:44;;;;;;;5.88;4.90;;;;;;;25.49;41.91;101433.50;5022916;28;20045;-56
2023/06/12 10:53:14;;;;;;;6.83;5.17;;;;;;;25.50;42.01;101435.22;5024650;28;20040;-56
2023/06/12 10:55:43;;;;;;;6.85;5.60;;;;;;;25.50;41.84;101435.22;5019550;28;20293;-56
2023/06/12 10:58:18;;;;;;;8.65;4.90;;;;;;;25.51;42.23;101435.06;5023347;28;20026;-56
2023/06/12 11:00:49;;;;;;;5.85;5.30;;;;;;;25.52;42.30;101420.38;5026685;28;20065;-56
2023/06/12 11:03:34;;;;;;;7.53;5.65;;;;;;;25.53;42.50;101429.38;5024918;28;20029;-56
2023/06/12 11:06:28;;;;;;;5.47;4.72;;;;;;;25.54;42.58;101428.38;5022177;28;20108;-56
2023/06/12 11:08:52;;;;;;;5.68;5.13;;;;;;;25.53;42.29;101429.38;5022694;28;20495;-56
2023/06/12 11:11:17;;;;;;;6.15;5.55;;;;;;;25.54;41.94;101417.47;5022743;28;20064;-57
2023/06/12 11:13:44;;;;;;;5.97;5.38;;;;;;;25.53;42.28;101424.81;5021793;28;20120;-56
2023/06/12 11:16:14;;;;;;;6.53;5.68;;;;;;;25.55;42.05;101427.31;5023543;28;20036;-54
2023/06/12 11:18:40;;;;;;;8.05;5.82;;;;;;;25.57;41.83;101414.38;5020837;28;20040;-54
2023/06/12 11:21:07;;;;;;;5.60;5.05;;;;;;;25.56;42.20;101418.97;5022209;28;20105;-54
2023/06/12 11:23:32;;;;;;;6.80;5.70;;;;;;;25.58;42.19;101417.94;5024654;28;20029;-54
2023/06/12 11:25:59;;;;;;;5.68;5.18;;;;;;;25.58;42.27;101415.22;5020962;28;20042;-54